Raleigh, WV (25911)

1:00 PM EDT on July 29, 2016 (GMT -0400)
Crow | | Change Station

Elev 2625 ft 37.74 °N, 81.07 °W | Updated 2 minutes ago

Mostly Cloudy
Mostly Cloudy
76.4 °F
Feels Like 78 °F
N
5.0
Wind Variable Wind from SW
Gusts 11.0 mph

Today
High -- | Low -- °F
--% Chance of Precip.
Yesterday
High -- | Low -- °F
Precip. -- in
Pressure 29.96 in
Visibility 10.0 miles
Clouds Mostly Cloudy 2500 ft
Mostly Cloudy 3300 ft
Heat Index 78 °F
Dew Point 68 °F
Humidity 76%
Rainfall 0.12 in
Snow Depth Not available.
6:26 AM 8:35 PM
Waning Crescent, 20% visible
METAR KBKW 291651Z AUTO 30005KT 10SM BKN025 BKN033 24/18 A3006 RMK AO2 SLP146 T02390178 CHINO RWY19
Pressure 29.96 in
Visibility 10.0 miles
Clouds Mostly Cloudy 2500 ft
Mostly Cloudy 3300 ft
Heat Index 78 °F
Dew Point 68 °F
Humidity 76%
Rainfall 0.12 in
Snow Depth Not available.
6:26 AM 8:35 PM
Waning Crescent, 20% visible
METAR KBKW 291651Z AUTO 30005KT 10SM BKN025 BKN033 24/18 A3006 RMK AO2 SLP146 T02390178 CHINO RWY19

10-Day Weather Forecast

Almanac

Astronomy

Jul. 29, 2016 Rise Set
Actual Time
Civil Twilight
Nautical Twilight
Astronomical Twilight
Moon
Length of Visible Light
Length of Day
Tomorrow will be .
, % of the Moon is Illuminated

Today's Extremes

State Highs State Lows

Community

WunderPhotos

Upload Photos

1,928,378 photos uploaded!

WunderBlog® & News

Nearby

Air Quality

  Air Quality AQ Index Pollutant
Not available.

Snow Depth

Station Depth Elevation

Earthquake Activity

City Distance Mag. Time & Date
Minimum magnitude displayed is 2.5.

Coastal Water Temperatures

Place Temperature

Stations

Nearby Weather Stations

Station Location Temp. Windchill Dew Point Humidity Wind Precip. Elev Updated Type
                   

Watches & Warnings

There are currently no watches in effect.